Time;durP1;ratioP1;P1;durP2;ratioP2;P2;SDS_P1;SDS_P2;PMS_P1;PMS_P2;Temp;Humidity;BMP_temperature;BMP_pressure;BME280_temperature;BME280_humidity;BME280_pressure;Samples;Min_cycle;Max_cycle;Signal;HPM_P1;HPM_P2
2021/06/05 00:00:01;;;;;;;9.38;2.90;;;;;;;14.76;79.50;101211.84;1654072;85;21401;-88
2021/06/05 00:02:29;;;;;;;5.53;3.30;;;;;;;14.71;79.71;101216.08;1660667;84;50888;-88
2021/06/05 00:05:00;;;;;;;7.40;3.60;;;;;;;14.68;79.78;101222.05;1653578;85;21215;-89
2021/06/05 00:07:26;;;;;;;7.20;3.12;;;;;;;14.63;79.89;101214.64;1666790;84;21069;-88
2021/06/05 00:09:53;;;;;;;6.85;3.20;;;;;;;14.59;80.13;101216.62;1656769;85;20963;-88
2021/06/05 00:12:24;;;;;;;6.80;3.20;;;;;;;14.53;80.27;101212.36;1663263;84;21364;-88
2021/06/05 00:14:52;;;;;;;5.55;2.77;;;;;;;14.49;80.24;101214.80;1667360;84;21584;-88
2021/06/05 00:17:19;;;;;;;10.30;3.45;;;;;;;14.47;80.22;101211.27;1637464;85;21486;-88
2021/06/05 00:19:47;;;;;;;6.62;3.20;;;;;;;14.46;80.33;101211.75;1662900;84;21109;-87
2021/06/05 00:22:14;;;;;;;9.05;3.27;;;;;;;14.44;80.41;101210.05;1655398;84;21087;-88
2021/06/05 00:24:42;;;;;;;8.18;3.15;;;;;;;14.40;80.35;101205.74;1632665;85;21660;-88
2021/06/05 00:27:10;;;;;;;7.95;3.47;;;;;;;14.36;80.26;101198.73;1662497;84;21625;-88
2021/06/05 00:29:36;;;;;;;8.63;3.30;;;;;;;14.32;79.97;101205.62;1663578;84;21018;-88
2021/06/05 00:32:04;;;;;;;6.40;3.40;;;;;;;14.31;79.71;101202.52;1652941;85;21000;-87
2021/06/05 00:34:32;;;;;;;10.25;3.50;;;;;;;14.30;79.79;101207.96;1661693;84;21161;-88
2021/06/05 00:37:00;;;;;;;9.95;3.58;;;;;;;14.25;79.99;101211.34;1659873;85;21079;-89
2021/06/05 00:39:27;;;;;;;7.37;3.40;;;;;;;14.19;79.99;101208.42;1670438;84;21026;-89
2021/06/05 00:41:54;;;;;;;6.10;3.80;;;;;;;14.16;80.01;101209.91;1654118;85;21054;-89
2021/06/05 00:44:23;;;;;;;13.00;4.00;;;;;;;14.12;80.23;101202.90;1679908;84;21064;-88
2021/06/05 00:46:50;;;;;;;8.78;3.27;;;;;;;14.08;80.59;101208.02;1641982;86;20970;-88
2021/06/05 00:49:18;;;;;;;8.25;3.72;;;;;;;14.01;80.88;101209.61;1663428;84;21080;-88
2021/06/05 00:51:49;;;;;;;6.70;3.77;;;;;;;13.96;81.59;101208.07;1665249;84;21097;-88
2021/06/05 00:54:18;;;;;;;7.35;3.50;;;;;;;13.86;82.10;101204.88;1662971;85;21116;-88
2021/06/05 00:56:52;;;;;;;6.53;3.67;;;;;;;13.77;82.36;101207.94;1633028;85;21584;-88
2021/06/05 00:59:19;;;;;;;8.60;3.72;;;;;;;13.68;82.87;101206.04;1649957;85;21080;-88
2021/06/05 01:01:48;;;;;;;8.73;3.55;;;;;;;13.62;82.99;101209.00;1634784;85;39626;-88
2021/06/05 01:04:15;;;;;;;11.08;3.92;;;;;;;13.57;83.07;101208.28;1644801;85;21550;-88
2021/06/05 01:06:55;;;;;;;7.03;3.60;;;;;;;13.54;83.09;101208.41;1643374;86;21489;-88
2021/06/05 01:09:37;;;;;;;14.85;3.58;;;;;;;13.49;83.25;101203.23;1603023;87;21148;-89
2021/06/05 01:12:10;;;;;;;11.60;3.58;;;;;;;13.45;83.39;101201.11;1660053;85;21156;-88
2021/06/05 01:14:51;;;;;;;9.60;3.58;;;;;;;13.42;83.34;101206.59;1609256;87;21603;-88
2021/06/05 01:17:39;;;;;;;8.63;3.22;;;;;;;13.39;83.32;101206.72;1625646;86;21195;-88
2021/06/05 01:20:20;;;;;;;4.87;3.10;;;;;;;13.35;83.60;101201.02;1651808;85;21666;-88
2021/06/05 01:23:36;;;;;;;7.97;3.45;;;;;;;13.31;83.43;101201.62;1656819;85;21935;-88
2021/06/05 01:26:21;;;;;;;10.08;3.42;;;;;;;13.29;83.37;101204.86;1655430;85;21677;-87
2021/06/05 01:28:58;;;;;;;8.60;3.62;;;;;;;13.26;82.97;101207.67;1638427;85;21606;-86
2021/06/05 01:31:35;;;;;;;8.00;3.58;;;;;;;13.27;82.43;101204.50;1659627;85;21123;-88
2021/06/05 01:34:02;;;;;;;9.25;3.60;;;;;;;13.32;82.08;101200.69;1655646;85;20954;-88
2021/06/05 01:36:34;;;;;;;6.35;3.25;;;;;;;13.33;81.88;101204.25;1653766;85;21170;-87
2021/06/05 01:39:06;;;;;;;16.48;3.95;;;;;;;13.32;81.44;101204.73;1616961;85;21086;-87
2021/06/05 01:41:32;;;;;;;8.20;3.67;;;;;;;13.35;81.01;101204.20;1645856;85;21090;-89
2021/06/05 01:44:00;;;;;;;11.48;3.60;;;;;;;13.42;80.55;101204.36;1635558;85;21583;-91
2021/06/05 01:46:29;;;;;;;9.68;4.05;;;;;;;13.48;80.26;101200.58;1658210;85;21474;-90
2021/06/05 01:48:58;;;;;;;7.37;3.92;;;;;;;13.45;79.92;101202.46;1660349;85;21098;-88
2021/06/05 01:51:25;;;;;;;4.65;3.58;;;;;;;13.43;79.76;101208.38;1649361;85;21114;-89
2021/06/05 01:53:57;;;;;;;5.42;3.55;;;;;;;13.42;79.94;101201.20;1664096;85;21932;-90
2021/06/05 01:56:37;;;;;;;6.92;3.35;;;;;;;13.35;79.95;101206.41;1658559;85;21351;-88
2021/06/05 01:59:07;;;;;;;5.62;3.75;;;;;;;13.30;79.91;101201.68;1657713;85;22504;-88
2021/06/05 02:01:35;;;;;;;6.87;3.90;;;;;;;13.26;79.96;101198.70;1668184;85;20995;-88
2021/06/05 02:04:04;;;;;;;8.33;3.55;;;;;;;13.24;79.93;101204.13;1663424;85;21079;-88
2021/06/05 02:06:36;;;;;;;9.95;3.80;;;;;;;13.25;79.76;101205.03;1655428;85;21310;-90
2021/06/05 02:09:08;;;;;;;11.73;3.90;;;;;;;13.24;79.45;101202.78;1603246;85;21177;-88
2021/06/05 02:11:40;;;;;;;10.72;4.45;;;;;;;13.26;79.11;101204.09;1635887;85;21149;-90
2021/06/05 02:14:15;;;;;;;8.53;3.40;;;;;;;13.29;78.85;101207.55;1623327;86;21146;-89
2021/06/05 02:16:49;;;;;;;7.50;3.60;;;;;;;13.34;78.59;101208.69;1658005;85;21040;-89
2021/06/05 02:19:30;;;;;;;10.55;3.50;;;;;;;13.37;78.29;101202.32;1657744;85;21791;-90
2021/06/05 02:22:01;;;;;;;8.50;3.70;;;;;;;13.35;78.06;101192.94;1662923;85;21140;-89
2021/06/05 02:24:33;;;;;;;6.33;3.60;;;;;;;13.36;78.02;101198.73;1654673;85;21029;-90
2021/06/05 02:27:00;;;;;;;6.33;3.20;;;;;;;13.40;77.89;101200.84;1642391;85;21047;-89
2021/06/05 02:29:32;;;;;;;6.50;3.80;;;;;;;13.49;77.55;101205.92;1653991;85;21676;-89
2021/06/05 02:31:59;;;;;;;12.33;3.98;;;;;;;13.57;77.01;101202.89;1645436;85;21884;-89
2021/06/05 02:34:28;;;;;;;7.87;3.37;;;;;;;13.67;76.76;101189.92;1659236;85;21177;-88
2021/06/05 02:37:00;;;;;;;7.65;3.62;;;;;;;13.77;76.21;101195.81;1651022;85;21030;-89
2021/06/05 02:39:28;;;;;;;6.37;4.00;;;;;;;13.82;75.89;101200.56;1639399;85;21689;-88
2021/06/05 02:41:58;;;;;;;16.67;4.83;;;;;;;13.86;75.77;101194.09;1653475;85;21032;-88
2021/06/05 02:44:29;;;;;;;7.45;3.70;;;;;;;13.90;75.59;101201.11;1617558;85;21953;-90
2021/06/05 02:46:58;;;;;;;9.65;3.95;;;;;;;13.95;75.38;101196.88;1662379;85;20978;-88
2021/06/05 02:49:31;;;;;;;10.48;4.00;;;;;;;13.96;75.30;101198.64;1622726;85;21585;-88
2021/06/05 02:52:28;;;;;;;;;;;;;;;13.96;75.21;101198.15;1649967;85;21442;-88
2021/06/05 02:54:40;;;;;;;10.28;3.37;;;;;;;13.97;75.09;101187.77;1651474;85;20117;-89
2021/06/05 02:57:08;;;;;;;14.95;3.70;;;;;;;13.95;75.26;101198.23;1648205;85;21120;-87
2021/06/05 02:59:37;;;;;;;11.15;3.67;;;;;;;13.92;75.69;101195.19;1663029;85;21057;-87
2021/06/05 03:02:04;;;;;;;14.93;3.67;;;;;;;13.88;76.04;101190.38;1660795;85;34281;-85
2021/06/05 03:04:33;;;;;;;8.30;4.00;;;;;;;13.86;76.27;101190.92;1627591;87;21322;-87
2021/06/05 03:07:00;;;;;;;9.70;3.90;;;;;;;13.86;76.11;101198.14;1650781;86;20956;-87
2021/06/05 03:09:27;;;;;;;10.32;3.30;;;;;;;13.86;75.70;101200.84;1641025;86;21120;-87
2021/06/05 03:11:55;;;;;;;10.58;3.83;;;;;;;13.87;75.58;101197.20;1641274;86;20948;-87
2021/06/05 03:14:24;;;;;;;9.63;4.08;;;;;;;13.90;75.19;101199.77;1639873;86;20960;-88
2021/06/05 03:16:51;;;;;;;8.95;3.47;;;;;;;13.96;74.87;101201.33;1637093;85;21044;-88
2021/06/05 03:19:19;;;;;;;9.35;3.72;;;;;;;14.04;74.26;101194.68;1646057;85;21000;-87
2021/06/05 03:21:47;;;;;;;11.15;3.98;;;;;;;14.15;74.00;101187.48;1621929;85;21134;-88
2021/06/05 03:24:21;;;;;;;11.00;4.00;;;;;;;14.22;73.51;101193.45;1643463;81;20913;-87
2021/06/05 03:26:50;;;;;;;7.25;3.52;;;;;;;14.31;72.99;101202.52;1640078;86;20912;-87
2021/06/05 03:29:17;;;;;;;9.53;3.30;;;;;;;14.43;72.43;101200.20;1629701;86;20973;-88
2021/06/05 03:31:45;;;;;;;7.25;3.50;;;;;;;14.51;72.37;101189.97;1640039;85;21035;-87
2021/06/05 03:34:12;;;;;;;6.08;3.30;;;;;;;14.59;72.29;101191.84;1626368;86;21067;-87
2021/06/05 03:36:38;;;;;;;12.58;3.42;;;;;;;14.67;72.41;101186.56;1639461;85;21063;-89
2021/06/05 03:39:09;;;;;;;11.73;4.10;;;;;;;14.75;71.95;101199.29;1633983;86;21645;-89
2021/06/05 03:41:37;;;;;;;11.60;3.85;;;;;;;14.82;71.79;101194.00;1635078;86;20944;-89
2021/06/05 03:44:05;;;;;;;8.38;3.80;;;;;;;14.90;71.68;101198.56;1634069;85;21038;-89
2021/06/05 03:46:33;;;;;;;6.33;3.50;;;;;;;14.95;71.31;101197.01;1634033;85;21394;-89
2021/06/05 03:49:04;;;;;;;9.30;3.72;;;;;;;15.01;71.14;101199.91;1636615;85;20926;-89
2021/06/05 03:51:33;;;;;;;9.08;3.65;;;;;;;15.05;70.79;101200.16;1639818;85;21078;-89
2021/06/05 03:54:00;;;;;;;9.05;3.27;;;;;;;15.11;70.75;101197.16;1643079;85;21106;-89
2021/06/05 03:56:27;;;;;;;12.00;3.65;;;;;;;15.18;70.62;101196.41;1644866;84;21067;-88
2021/06/05 03:58:53;;;;;;;8.33;3.67;;;;;;;15.27;70.26;101197.80;1649721;85;21178;-89
2021/06/05 04:01:23;;;;;;;9.80;3.60;;;;;;;15.40;69.98;101197.62;1670376;85;21409;-89
2021/06/05 04:03:51;;;;;;;10.82;3.00;;;;;;;15.55;69.60;101188.34;1664752;85;21078;-89
2021/06/05 04:06:21;;;;;;;16.25;3.50;;;;;;;15.72;68.86;101187.53;1639776;85;21436;-89
2021/06/05 04:08:49;;;;;;;10.58;3.50;;;;;;;15.86;68.37;101193.60;1661915;85;21374;-89
2021/06/05 04:11:16;;;;;;;6.60;3.10;;;;;;;15.99;67.65;101187.13;1668752;85;21397;-89
2021/06/05 04:13:45;;;;;;;6.15;3.37;;;;;;;16.11;66.88;101182.91;1655846;83;21145;-89
2021/06/05 04:16:12;;;;;;;8.98;3.40;;;;;;;16.26;66.71;101190.70;1653091;85;21141;-89
2021/06/05 04:18:40;;;;;;;9.33;3.62;;;;;;;16.41;66.42;101190.38;1663847;85;21023;-89
2021/06/05 04:21:10;;;;;;;7.37;3.30;;;;;;;16.54;66.17;101195.55;1661805;85;21539;-89
2021/06/05 04:23:37;;;;;;;9.40;3.45;;;;;;;16.58;65.77;101191.72;1664976;85;21611;-89
2021/06/05 04:26:05;;;;;;;9.65;3.50;;;;;;;16.60;65.64;101198.42;1643189;85;21090;-89
2021/06/05 04:28:32;;;;;;;8.43;3.45;;;;;;;16.56;65.58;101194.98;1638439;85;21622;-89
2021/06/05 04:30:59;;;;;;;6.87;3.35;;;;;;;16.47;65.71;101195.48;1652486;85;21090;-89
2021/06/05 04:33:28;;;;;;;7.58;3.52;;;;;;;16.40;65.84;101192.69;1661949;85;21126;-89
2021/06/05 04:35:57;;;;;;;11.40;3.70;;;;;;;16.31;66.41;101196.29;1671043;85;21008;-90
2021/06/05 04:38:24;;;;;;;8.43;3.60;;;;;;;16.24;66.42;101190.77;1664883;85;20983;-89
2021/06/05 04:40:50;;;;;;;4.60;3.17;;;;;;;16.20;66.47;101194.59;1648143;85;21072;-90
2021/06/05 04:43:17;;;;;;;11.88;4.37;;;;;;;16.18;66.37;101199.22;1659750;83;21031;-89
2021/06/05 04:45:46;;;;;;;8.18;3.80;;;;;;;16.19;66.40;101196.91;1650744;84;21109;-89
2021/06/05 04:48:13;;;;;;;6.47;3.65;;;;;;;16.16;66.48;101191.20;1658853;85;21201;-89
2021/06/05 04:50:40;;;;;;;8.18;3.60;;;;;;;16.15;66.13;101194.86;1673667;85;21777;-89
2021/06/05 04:53:06;;;;;;;9.18;3.92;;;;;;;16.19;66.39;101187.44;1653403;84;21068;-89
2021/06/05 04:55:34;;;;;;;7.65;3.67;;;;;;;16.24;65.69;101193.48;1656438;85;21044;-89
2021/06/05 04:58:00;;;;;;;10.00;3.42;;;;;;;16.30;65.82;101190.48;1651001;85;21098;-89
2021/06/05 05:00:35;;;;;;;8.55;4.15;;;;;;;16.35;65.66;101195.63;1658704;85;21428;-89
2021/06/05 05:03:03;;;;;;;6.92;3.65;;;;;;;16.38;65.58;101194.60;1665721;85;21081;-88
2021/06/05 05:05:31;;;;;;;13.15;4.20;;;;;;;16.40;65.48;101192.69;1651165;85;21386;-89
2021/06/05 05:07:58;;;;;;;8.88;3.83;;;;;;;16.47;65.63;101192.78;1675559;85;21074;-90
2021/06/05 05:10:29;;;;;;;15.55;3.52;;;;;;;16.52;65.50;101196.58;1663558;85;21006;-89
2021/06/05 05:12:59;;;;;;;12.33;3.47;;;;;;;16.54;65.32;101194.20;1659487;83;21107;-89
2021/06/05 05:15:26;;;;;;;8.80;3.50;;;;;;;16.64;64.99;101192.34;1667078;83;21031;-89
2021/06/05 05:17:52;;;;;;;9.40;3.60;;;;;;;16.79;64.98;101190.17;1660511;85;21094;-89
2021/06/05 05:20:29;;;;;;;9.33;3.45;;;;;;;17.04;64.16;101194.27;1648901;85;21018;-88
2021/06/05 05:22:56;;;;;;;12.53;3.62;;;;;;;17.24;63.35;101194.99;1658222;85;25707;-89
2021/06/05 05:25:22;;;;;;;13.93;3.35;;;;;;;17.39;62.70;101197.31;1656289;85;21137;-89
2021/06/05 05:27:49;;;;;;;13.90;3.70;;;;;;;17.47;62.66;101201.34;1661758;83;21124;-89
2021/06/05 05:30:22;;;;;;;11.65;4.35;;;;;;;17.57;62.22;101192.67;1645877;85;21513;-90
2021/06/05 05:32:49;;;;;;;15.83;3.75;;;;;;;17.63;62.63;101192.34;1662908;83;21089;-89
2021/06/05 05:35:17;;;;;;;7.67;3.95;;;;;;;17.71;62.97;101196.82;1662485;85;21167;-89
2021/06/05 05:37:44;;;;;;;12.70;4.05;;;;;;;17.80;63.48;101195.41;1675880;85;21601;-89
2021/06/05 05:40:13;;;;;;;8.63;3.92;;;;;;;17.89;63.52;101192.64;1655388;85;22295;-89
2021/06/05 05:42:41;;;;;;;13.83;3.80;;;;;;;17.96;63.43;101199.95;1667045;85;21111;-90
2021/06/05 05:45:09;;;;;;;8.53;3.58;;;;;;;18.04;63.79;101199.92;1662339;85;21110;-89
2021/06/05 05:47:36;;;;;;;8.68;3.67;;;;;;;18.14;64.03;101192.57;1667031;85;21074;-89
2021/06/05 05:50:05;;;;;;;18.52;4.12;;;;;;;18.21;64.33;101198.01;1663526;82;21116;-88
2021/06/05 05:52:32;;;;;;;12.20;3.60;;;;;;;18.32;64.11;101199.61;1657926;85;21132;-89
2021/06/05 05:54:59;;;;;;;18.55;3.92;;;;;;;18.50;63.93;101200.81;1635414;85;21173;-89
2021/06/05 05:57:25;;;;;;;10.88;3.87;;;;;;;18.68;63.84;101197.91;1644015;86;21102;-88
2021/06/05 05:59:52;;;;;;;11.65;3.67;;;;;;;18.90;64.22;101201.52;1640152;85;21090;-88
2021/06/05 06:02:20;;;;;;;11.60;3.83;;;;;;;19.07;64.18;101207.27;1623074;86;40921;-89
2021/06/05 06:04:48;;;;;;;8.85;3.60;;;;;;;19.25;64.43;101211.14;1597359;88;21572;-88
2021/06/05 06:07:15;;;;;;;13.22;3.70;;;;;;;19.41;64.28;101205.56;1611429;87;21050;-89
2021/06/05 06:09:41;;;;;;;8.53;3.60;;;;;;;19.54;64.25;101204.27;1608959;87;21146;-88
2021/06/05 06:12:09;;;;;;;7.80;3.50;;;;;;;19.64;63.36;101194.55;1601600;88;21453;-89
2021/06/05 06:14:35;;;;;;;8.08;3.80;;;;;;;19.74;62.78;101205.19;1610972;86;21758;-89
2021/06/05 06:17:02;;;;;;;7.35;3.37;;;;;;;19.81;61.62;101198.00;1606645;87;21072;-88
2021/06/05 06:19:29;;;;;;;8.08;4.15;;;;;;;19.89;61.04;101193.79;1598597;88;21068;-89
2021/06/05 06:21:58;;;;;;;11.55;4.12;;;;;;;19.97;61.26;101193.27;1612726;87;21129;-88
2021/06/05 06:24:25;;;;;;;7.80;3.70;;;;;;;20.08;61.23;101194.41;1600205;88;21195;-89
2021/06/05 06:26:52;;;;;;;13.93;3.70;;;;;;;20.18;60.54;101189.59;1596460;89;21101;-88
2021/06/05 06:29:21;;;;;;;4.75;3.17;;;;;;;20.24;59.66;101192.39;1607596;87;21641;-87
2021/06/05 06:31:48;;;;;;;11.95;3.33;;;;;;;20.31;58.89;101190.97;1604624;87;21786;-87
2021/06/05 06:34:16;;;;;;;5.72;2.95;;;;;;;20.41;58.88;101191.20;1561380;89;21199;-88
2021/06/05 06:36:45;;;;;;;5.58;3.10;;;;;;;20.50;58.72;101191.52;1604978;87;21066;-88
2021/06/05 06:39:13;;;;;;;9.90;3.37;;;;;;;20.59;57.52;101197.20;1606965;87;21609;-87
2021/06/05 06:41:42;;;;;;;11.05;3.98;;;;;;;20.69;57.80;101199.30;1597783;88;21489;-87
2021/06/05 06:44:09;;;;;;;8.33;3.25;;;;;;;20.79;57.82;101195.42;1596262;87;21019;-87
2021/06/05 06:46:40;;;;;;;8.80;3.40;;;;;;;20.92;57.55;101192.72;1613877;87;21569;-89
2021/06/05 06:49:07;;;;;;;7.95;3.65;;;;;;;21.07;58.40;101183.41;1602787;88;21142;-86
2021/06/05 06:51:37;;;;;;;12.88;3.52;;;;;;;21.18;57.97;101184.88;1621499;87;21778;-88
2021/06/05 06:54:05;;;;;;;12.30;3.52;;;;;;;21.33;57.97;101190.16;1631435;86;21299;-89
2021/06/05 06:56:31;;;;;;;8.20;3.50;;;;;;;21.54;57.08;101192.28;1651576;85;21637;-88
2021/06/05 06:58:58;;;;;;;5.83;3.27;;;;;;;21.75;56.13;101186.61;1632978;86;21057;-88
2021/06/05 07:01:26;;;;;;;6.58;3.55;;;;;;;21.93;55.07;101179.88;1630072;86;56825;-89
2021/06/05 07:03:54;;;;;;;7.92;3.85;;;;;;;22.10;54.34;101173.12;1622616;87;21953;-88
2021/06/05 07:06:25;;;;;;;7.60;3.98;;;;;;;22.24;54.65;101178.86;1631248;86;21182;-89
2021/06/05 07:08:53;;;;;;;9.43;3.30;;;;;;;22.40;53.82;101183.98;1642867;86;21273;-89
2021/06/05 07:11:28;;;;;;;13.70;3.17;;;;;;;22.55;54.14;101177.87;1646289;86;21036;-87
2021/06/05 07:13:55;;;;;;;4.40;2.95;;;;;;;22.68;53.65;101176.39;1630951;86;21550;-88
2021/06/05 07:16:22;;;;;;;12.88;3.47;;;;;;;22.79;52.22;101173.66;1642859;86;21832;-90
2021/06/05 07:18:50;;;;;;;11.85;3.00;;;;;;;22.85;51.45;101169.56;1631449;85;21057;-88
2021/06/05 07:21:17;;;;;;;13.58;3.10;;;;;;;22.91;50.69;101164.11;1630154;87;21608;-88
2021/06/05 07:23:44;;;;;;;6.92;3.10;;;;;;;22.97;50.19;101170.43;1634690;86;21517;-87
2021/06/05 07:26:16;;;;;;;7.75;3.33;;;;;;;22.98;48.81;101167.55;1630445;86;21101;-88
2021/06/05 07:28:46;;;;;;;12.28;3.45;;;;;;;23.03;47.74;101172.66;1614300;86;21155;-88
2021/06/05 07:31:17;;;;;;;11.57;3.92;;;;;;;23.09;46.99;101166.67;1622274;86;22017;-88
2021/06/05 07:33:45;;;;;;;10.98;3.85;;;;;;;23.15;47.12;101168.93;1631984;86;21624;-88
2021/06/05 07:36:17;;;;;;;8.20;3.30;;;;;;;23.21;48.04;101163.47;1630336;87;21081;-89
2021/06/05 07:38:44;;;;;;;6.12;3.33;;;;;;;23.31;47.03;101158.98;1624960;86;21160;-90
2021/06/05 07:41:11;;;;;;;6.30;3.50;;;;;;;23.39;45.21;101162.45;1626482;86;21163;-87
2021/06/05 07:43:39;;;;;;;7.05;3.42;;;;;;;23.50;44.79;101171.63;1631831;86;21100;-88
2021/06/05 07:46:06;;;;;;;7.75;3.00;;;;;;;23.56;44.29;101162.92;1631656;86;21633;-89
2021/06/05 07:48:32;;;;;;;8.10;3.10;;;;;;;23.60;44.33;101158.92;1648438;86;21044;-88
2021/06/05 07:50:59;;;;;;;9.60;3.90;;;;;;;23.66;43.58;101161.13;1646992;86;21353;-88
2021/06/05 07:53:26;;;;;;;10.65;3.20;;;;;;;23.69;43.58;101164.98;1659777;86;21116;-88
2021/06/05 07:55:53;;;;;;;7.20;2.98;;;;;;;23.74;43.70;101164.08;1636853;87;21161;-89
2021/06/05 07:58:19;;;;;;;8.18;3.25;;;;;;;23.88;43.84;101164.78;1611139;87;21085;-88
2021/06/05 08:00:46;;;;;;;10.35;3.37;;;;;;;23.93;43.58;101161.14;1602135;85;1006851;-88
2021/06/05 08:03:13;;;;;;;6.30;3.10;;;;;;;23.94;44.19;101157.41;1621346;87;21464;-87
2021/06/05 08:05:40;;;;;;;14.30;4.20;;;;;;;23.94;44.63;101150.56;1626256;87;21141;-88
2021/06/05 08:08:08;;;;;;;9.65;3.70;;;;;;;24.03;45.36;101153.93;1618080;87;21085;-87
2021/06/05 08:10:39;;;;;;;7.22;3.05;;;;;;;24.19;45.36;101149.84;1628762;87;21018;-87
2021/06/05 08:13:06;;;;;;;4.53;2.85;;;;;;;24.31;44.05;101147.90;1634145;87;21108;-88
2021/06/05 08:15:36;;;;;;;10.35;3.83;;;;;;;24.29;43.68;101152.16;1616840;87;21254;-88
2021/06/05 08:18:03;;;;;;;7.87;2.72;;;;;;;24.28;43.15;101147.69;1642144;85;21137;-89
2021/06/05 08:20:41;;;;;;;9.58;2.65;;;;;;;24.26;43.45;101141.47;1641874;87;21176;-88
2021/06/05 08:23:10;;;;;;;6.62;2.62;;;;;;;24.26;42.45;101141.47;1642095;87;21153;-88
2021/06/05 08:25:37;;;;;;;14.55;2.52;;;;;;;24.38;42.31;101149.61;1642599;86;21929;-86
2021/06/05 08:28:05;;;;;;;5.83;3.02;;;;;;;24.47;42.30;101140.59;1621070;85;21091;-86
2021/06/05 08:30:36;;;;;;;6.40;2.90;;;;;;;24.58;42.38;101145.13;1614712;87;21726;-86
2021/06/05 08:33:04;;;;;;;5.33;2.90;;;;;;;24.65;42.34;101146.30;1616202;87;21044;-86
2021/06/05 08:35:31;;;;;;;7.30;3.02;;;;;;;24.65;42.15;101150.41;1614146;87;21588;-86
2021/06/05 08:37:57;;;;;;;7.30;2.75;;;;;;;24.69;42.98;101145.02;1621998;86;21041;-86
2021/06/05 08:40:46;;;;;;;8.83;2.70;;;;;;;24.82;42.77;101143.97;1618462;85;21542;-86
2021/06/05 08:43:14;;;;;;;5.08;2.30;;;;;;;25.00;41.00;101144.17;1612036;87;21475;-87
2021/06/05 08:45:42;;;;;;;5.90;2.70;;;;;;;25.18;39.09;101147.98;1617498;85;21689;-89
2021/06/05 08:48:13;;;;;;;12.90;2.92;;;;;;;25.21;39.50;101144.59;1614195;88;21213;-91
2021/06/05 08:50:41;;;;;;;5.67;3.02;;;;;;;25.16;37.77;101137.66;1580561;89;21706;-90
2021/06/05 08:53:19;;;;;;;5.72;2.90;;;;;;;25.06;38.84;101138.12;1616368;85;21590;-90
2021/06/05 08:55:54;;;;;;;6.72;2.65;;;;;;;25.05;39.07;101130.90;1614166;87;21212;-91
2021/06/05 08:58:40;;;;;;;6.00;2.52;;;;;;;25.06;39.79;101127.67;1584430;87;38046;-91
2021/06/05 09:01:19;;;;;;;3.87;2.70;;;;;;;25.06;39.76;101129.04;1613233;87;21111;-89
2021/06/05 09:03:54;;;;;;;6.30;2.72;;;;;;;25.04;40.22;101123.69;1631678;87;21673;-90
2021/06/05 09:06:40;;;;;;;8.18;2.70;;;;;;;24.98;40.35;101118.77;1624274;86;21708;-89
2021/06/05 09:09:08;;;;;;;7.87;3.37;;;;;;;24.93;40.28;101121.91;1588969;88;21602;-87
2021/06/05 09:11:37;;;;;;;6.45;2.70;;;;;;;24.85;38.15;101114.38;1600998;88;21122;-88
2021/06/05 09:14:04;;;;;;;7.72;2.90;;;;;;;24.80;38.09;101122.16;1588869;87;21181;-88
2021/06/05 09:16:47;;;;;;;9.50;2.52;;;;;;;24.72;36.16;101119.22;1608841;87;21157;-91
2021/06/05 09:19:32;;;;;;;7.85;2.80;;;;;;;24.66;37.28;101124.73;1613678;87;21159;-89
2021/06/05 09:22:13;;;;;;;10.35;3.08;;;;;;;24.60;36.14;101123.92;1617443;87;21167;-89
2021/06/05 09:24:50;;;;;;;9.28;2.92;;;;;;;24.46;35.99;101122.42;1599746;88;21066;-90
2021/06/05 09:27:21;;;;;;;4.95;2.33;;;;;;;24.38;37.34;101111.25;1599745;87;21933;-89
2021/06/05 09:30:07;;;;;;;8.28;2.52;;;;;;;24.37;37.48;101114.50;1594594;88;21032;-90
2021/06/05 09:32:51;;;;;;;5.42;2.42;;;;;;;24.34;38.10;101115.27;1606506;87;21155;-89
2021/06/05 09:35:32;;;;;;;7.87;2.55;;;;;;;24.24;34.55;101108.36;1614253;87;21463;-90
2021/06/05 09:38:32;;;;;;;11.80;3.12;;;;;;;24.09;36.19;101100.98;1618690;87;21023;-89
2021/06/05 09:41:09;;;;;;;8.63;2.52;;;;;;;23.97;37.34;101110.59;1537373;90;21204;-89
2021/06/05 09:43:36;;;;;;;7.55;2.55;;;;;;;23.92;38.72;101094.21;1503046;92;21170;-91
2021/06/05 09:46:27;;;;;;;8.93;2.42;;;;;;;23.99;37.69;101100.40;1541377;88;21180;-91
2021/06/05 09:49:18;;;;;;;6.72;2.42;;;;;;;24.03;37.25;101096.42;1582836;88;21169;-91
2021/06/05 09:51:48;;;;;;;7.90;2.30;;;;;;;24.09;37.47;101101.84;1603165;87;21089;-91
2021/06/05 09:54:35;;;;;;;10.80;2.50;;;;;;;24.17;35.93;101098.44;1601712;87;21204;-91
2021/06/05 09:57:28;;;;;;;4.42;2.37;;;;;;;24.23;35.20;101103.39;1644683;86;21142;-90
2021/06/05 10:00:15;;;;;;;7.78;2.75;;;;;;;24.30;35.84;101098.22;1636544;86;21107;-90
2021/06/05 10:02:48;;;;;;;9.95;2.40;;;;;;;24.36;36.93;101096.81;1661067;85;28557;-91
2021/06/05 10:05:39;;;;;;;5.20;2.30;;;;;;;24.40;37.56;101094.16;1662129;84;21082;-90
2021/06/05 10:08:38;;;;;;;9.55;2.30;;;;;;;24.42;36.54;101092.16;1670085;84;21229;-89
2021/06/05 10:11:31;;;;;;;9.13;2.42;;;;;;;24.49;34.96;101097.47;1670427;84;21151;-90
2021/06/05 10:14:05;;;;;;;4.47;2.02;;;;;;;24.54;31.62;101099.30;1668594;84;21214;-90
2021/06/05 10:16:33;;;;;;;4.83;2.00;;;;;;;24.60;29.57;101090.52;1668379;84;21797;-89
2021/06/05 10:19:14;;;;;;;4.80;2.25;;;;;;;24.63;29.58;101083.02;1674068;84;21059;-89
2021/06/05 10:21:47;;;;;;;6.17;2.00;;;;;;;24.69;29.42;101075.64;1697963;84;21043;-90
2021/06/05 10:24:28;;;;;;;6.45;2.10;;;;;;;24.79;29.82;101078.45;1690534;84;21793;-90
2021/06/05 10:26:57;;;;;;;8.75;2.62;;;;;;;24.83;28.76;101073.89;1691112;83;21737;-91
2021/06/05 10:29:35;;;;;;;3.60;1.82;;;;;;;24.89;28.62;101074.73;1682281;84;21816;-91
2021/06/05 10:32:09;;;;;;;8.05;2.37;;;;;;;24.85;26.85;101081.99;1676219;84;21531;-91
2021/06/05 10:34:42;;;;;;;4.25;2.45;;;;;;;24.81;28.21;101070.95;1678464;84;21011;-90
2021/06/05 10:37:15;;;;;;;5.28;2.60;;;;;;;24.84;29.25;101073.41;1699549;84;20976;-90
2021/06/05 10:39:44;;;;;;;5.58;2.08;;;;;;;24.80;29.31;101075.55;1671998;84;21965;-90
2021/06/05 10:42:33;;;;;;;7.37;2.95;;;;;;;24.76;27.77;101074.09;1670259;84;21173;-89
2021/06/05 10:45:00;;;;;;;6.12;3.05;;;;;;;24.72;27.82;101080.84;1671623;84;21083;-86
2021/06/05 10:47:48;;;;;;;3.08;1.90;;;;;;;24.70;28.06;101070.00;1648867;85;21672;-86
2021/06/05 10:50:23;;;;;;;12.43;3.33;;;;;;;24.73;28.11;101070.23;1669861;84;21066;-88
2021/06/05 10:53:10;;;;;;;7.50;2.70;;;;;;;24.73;29.07;101068.34;1681873;83;21201;-88
2021/06/05 10:55:52;;;;;;;5.72;1.87;;;;;;;24.83;30.17;101068.92;1687960;81;21019;-90
2021/06/05 10:58:24;;;;;;;7.33;2.40;;;;;;;24.86;28.64;101072.23;1687486;81;20997;-90
2021/06/05 11:01:33;;;;;;;6.10;2.40;;;;;;;24.76;28.64;101061.76;1684073;81;20956;-90
2021/06/05 11:04:10;;;;;;;5.42;2.17;;;;;;;24.74;29.31;101070.59;1706592;84;21034;-93
2021/06/05 11:06:53;;;;;;;4.75;2.30;;;;;;;24.79;30.21;101066.96;1673148;84;21033;-89
2021/06/05 11:09:32;;;;;;;10.20;2.45;;;;;;;24.73;31.81;101067.49;1680709;83;21868;-91
2021/06/05 11:12:16;;;;;;;5.75;2.25;;;;;;;24.65;33.24;101063.19;1685613;84;21160;-92
2021/06/05 11:14:47;;;;;;;5.60;2.10;;;;;;;24.64;34.15;101062.83;1674522;84;21016;-89
2021/06/05 11:17:29;;;;;;;6.08;2.17;;;;;;;24.71;34.37;101059.91;1687293;84;21539;-89
2021/06/05 11:20:08;;;;;;;3.45;1.80;;;;;;;24.85;34.62;101053.20;1666046;84;21846;-89
2021/06/05 11:23:00;;;;;;;6.12;2.05;;;;;;;25.02;34.14;101059.88;1679625;84;21208;-91
2021/06/05 11:25:45;;;;;;;6.15;2.10;;;;;;;25.18;33.76;101057.45;1674867;84;21098;-89
2021/06/05 11:28:27;;;;;;;3.20;2.02;;;;;;;25.25;33.29;101058.25;1675654;84;21634;-90
2021/06/05 11:30:54;;;;;;;5.87;2.17;;;;;;;25.25;33.54;101054.13;1664517;84;21117;-91
2021/06/05 11:33:44;;;;;;;3.55;1.92;;;;;;;25.22;33.97;101056.67;1677585;83;21124;-90
2021/06/05 11:36:40;;;;;;;8.00;2.22;;;;;;;25.24;34.34;101055.14;1675537;84;21193;-90
2021/06/05 11:39:28;;;;;;;6.30;2.12;;;;;;;25.24;34.92;101050.54;1654742;85;21192;-90
2021/06/05 11:42:22;;;;;;;6.12;2.12;;;;;;;25.30;34.52;101055.45;1679243;84;21169;-89
2021/06/05 11:44:59;;;;;;;5.05;2.33;;;;;;;25.37;34.02;101050.26;1678446;84;21169;-91